Time;durP1;ratioP1;P1;durP2;ratioP2;P2;SDS_P1;SDS_P2;PMS_P1;PMS_P2;Temp;Humidity;BMP_temperature;BMP_pressure;BME280_temperature;BME280_humidity;BME280_pressure;Samples;Min_cycle;Max_cycle;Signal;HPM_P1;HPM_P2
2021/08/31 00:00:49;;;;;;;;;;;20.10;72.10;;;;;;5104074;28;19915;-58
2021/08/31 00:03:14;;;;;;;;;;;20.10;71.90;;;;;;5104024;28;19922;-59
2021/08/31 00:05:40;;;;;;;;;;;20.10;71.90;;;;;;5103229;28;20630;-61
2021/08/31 00:08:05;;;;;;;;;;;20.10;71.90;;;;;;5103960;28;19912;-62
2021/08/31 00:10:31;;;;;;;;;;;20.10;71.90;;;;;;5102175;28;19922;-61
2021/08/31 00:12:56;;;;;;;;;;;20.10;71.90;;;;;;5103523;28;19916;-62
2021/08/31 00:15:22;;;;;;;;;;;20.20;71.90;;;;;;5100281;28;20583;-59
2021/08/31 00:17:47;;;;;;;;;;;20.10;71.90;;;;;;5103785;28;20013;-61
2021/08/31 00:20:13;;;;;;;;;;;20.10;71.90;;;;;;5084752;28;19912;-59
2021/08/31 00:22:38;;;;;;;;;;;20.10;71.90;;;;;;5103387;28;20657;-60
2021/08/31 00:25:04;;;;;;;;;;;20.10;71.90;;;;;;5103274;28;19916;-59
2021/08/31 00:27:29;;;;;;;;;;;20.10;71.80;;;;;;5103471;28;19923;-62
2021/08/31 00:29:55;;;;;;;;;;;20.10;71.80;;;;;;5102788;28;19926;-62
2021/08/31 00:32:20;;;;;;;;;;;20.10;71.80;;;;;;5103443;28;20441;-61
2021/08/31 00:34:46;;;;;;;;;;;20.10;71.80;;;;;;5103413;28;20216;-62
2021/08/31 00:37:11;;;;;;;;;;;20.10;71.80;;;;;;5085484;28;19912;-61
2021/08/31 00:39:37;;;;;;;;;;;20.10;71.80;;;;;;5102903;28;19969;-61
2021/08/31 00:42:02;;;;;;;;;;;20.10;71.70;;;;;;5102937;28;19920;-61
2021/08/31 00:44:28;;;;;;;;;;;20.10;71.80;;;;;;5103098;28;19912;-62
2021/08/31 00:46:56;;;;;;;;;;;20.10;71.70;;;;;;5102698;28;19916;-61
2021/08/31 00:49:25;;;;;;;;;;;20.10;71.80;;;;;;5102320;28;20038;-62
2021/08/31 00:51:51;;;;;;;;;;;20.10;71.70;;;;;;5084677;28;20018;-60
2021/08/31 00:54:17;;;;;;;;;;;20.10;71.80;;;;;;5102797;28;19919;-60
2021/08/31 00:56:44;;;;;;;;;;;20.10;71.80;;;;;;5083939;28;19931;-68
2021/08/31 00:59:09;;;;;;;;;;;20.10;71.70;;;;;;5102275;28;20611;-60
2021/08/31 01:01:35;;;;;;;;;;;20.10;71.80;;;;;;5102564;28;19915;-62
2021/08/31 01:04:00;;;;;;;;;;;20.10;71.80;;;;;;5102583;28;20639;-62
2021/08/31 01:06:25;;;;;;;;;;;20.10;71.80;;;;;;5102656;28;19911;-62
2021/08/31 01:08:51;;;;;;;;;;;20.10;71.80;;;;;;5102627;28;19920;-62
2021/08/31 01:11:16;;;;;;;;;;;20.10;71.80;;;;;;5102198;28;19916;-58
2021/08/31 01:13:42;;;;;;;;;;;20.10;71.80;;;;;;5085118;28;20355;-58
2021/08/31 01:16:07;;;;;;;;;;;20.10;71.70;;;;;;5102848;28;19946;-59
2021/08/31 01:18:34;;;;;;;;;;;20.10;71.80;;;;;;5101933;28;19941;-62
2021/08/31 01:20:59;;;;;;;;;;;20.10;71.70;;;;;;5102601;28;19934;-60
2021/08/31 01:23:25;;;;;;;;;;;20.10;71.70;;;;;;5100740;28;20349;-58
2021/08/31 01:25:51;;;;;;;;;;;20.10;71.70;;;;;;5102104;28;20057;-61
2021/08/31 01:28:20;;;;;;;;;;;20.10;71.70;;;;;;5084145;28;20318;-62
2021/08/31 01:30:46;;;;;;;;;;;20.10;71.70;;;;;;5102038;28;20545;-61
2021/08/31 01:33:11;;;;;;;;;;;20.10;71.70;;;;;;5102797;28;19922;-59
2021/08/31 01:35:37;;;;;;;;;;;20.10;71.70;;;;;;5101898;28;19919;-60
2021/08/31 01:38:02;;;;;;;;;;;20.10;71.70;;;;;;5084274;28;20373;-59
2021/08/31 01:40:27;;;;;;;;;;;20.10;71.80;;;;;;5101922;28;19912;-60
2021/08/31 01:42:53;;;;;;;;;;;20.10;71.90;;;;;;5084132;28;20535;-62
2021/08/31 01:45:18;;;;;;;;;;;20.10;71.80;;;;;;5101998;28;19971;-60
2021/08/31 01:47:44;;;;;;;;;;;20.10;71.80;;;;;;5101807;28;19923;-61
2021/08/31 01:50:09;;;;;;;;;;;20.10;71.70;;;;;;5102409;28;19916;-62
2021/08/31 01:52:35;;;;;;;;;;;20.10;72.30;;;;;;5101116;28;19916;-61
2021/08/31 01:55:01;;;;;;;;;;;20.10;71.70;;;;;;5102139;28;19935;-59
2021/08/31 01:57:26;;;;;;;;;;;20.10;71.70;;;;;;5100539;28;19915;-62
2021/08/31 01:59:51;;;;;;;;;;;20.10;71.70;;;;;;5100748;28;20439;-62
2021/08/31 02:02:17;;;;;;;;;;;20.10;71.60;;;;;;5101479;28;19916;-61
2021/08/31 02:04:42;;;;;;;;;;;20.10;71.60;;;;;;5101723;28;19919;-62
2021/08/31 02:07:08;;;;;;;;;;;20.10;71.60;;;;;;5101669;28;19923;-62
2021/08/31 02:09:33;;;;;;;;;;;20.10;71.60;;;;;;5101587;28;19927;-61
2021/08/31 02:11:59;;;;;;;;;;;20.10;71.60;;;;;;5101345;28;20121;-61
2021/08/31 02:14:24;;;;;;;;;;;20.10;71.60;;;;;;5101605;28;19912;-61
2021/08/31 02:16:50;;;;;;;;;;;20.10;71.50;;;;;;5100893;28;19927;-60
2021/08/31 02:19:15;;;;;;;;;;;20.10;71.50;;;;;;5101534;28;20061;-61
2021/08/31 02:21:40;;;;;;;;;;;20.10;71.50;;;;;;5101823;28;19973;-61
2021/08/31 02:24:06;;;;;;;;;;;20.10;71.50;;;;;;5101703;28;19916;-61
2021/08/31 02:26:33;;;;;;;;;;;20.10;71.60;;;;;;5101274;28;19992;-60
2021/08/31 02:28:58;;;;;;;;;;;20.10;71.60;;;;;;5101802;28;19943;-60
2021/08/31 02:31:24;;;;;;;;;;;20.10;71.60;;;;;;5101400;28;19977;-58
2021/08/31 02:33:49;;;;;;;;;;;20.10;71.50;;;;;;5087344;28;20004;-59
2021/08/31 02:36:14;;;;;;;;;;;20.10;71.60;;;;;;5087527;28;19916;-59
2021/08/31 02:38:40;;;;;;;;;;;20.10;71.50;;;;;;5106638;28;19915;-61
2021/08/31 02:41:05;;;;;;;;;;;20.10;71.50;;;;;;5106025;28;19965;-62
2021/08/31 02:43:31;;;;;;;;;;;20.10;71.50;;;;;;5087836;28;19919;-59
2021/08/31 02:45:56;;;;;;;;;;;20.10;71.60;;;;;;5086522;28;20339;-59
2021/08/31 02:48:22;;;;;;;;;;;20.10;71.50;;;;;;5105535;28;19924;-60
2021/08/31 02:50:47;;;;;;;;;;;20.10;71.50;;;;;;5105772;28;20383;-62
2021/08/31 02:53:13;;;;;;;;;;;20.10;71.50;;;;;;5106128;28;19912;-59
2021/08/31 02:55:38;;;;;;;;;;;20.10;71.40;;;;;;5106110;28;19911;-61
2021/08/31 02:58:04;;;;;;;;;;;20.10;71.40;;;;;;5105767;28;20157;-62
2021/08/31 03:00:31;;;;;;;;;;;20.10;71.50;;;;;;5104743;28;20455;-62
2021/08/31 03:02:57;;;;;;;;;;;20.10;71.40;;;;;;5105389;28;19984;-60
2021/08/31 03:05:22;;;;;;;;;;;20.10;71.40;;;;;;5105179;28;19916;-61
2021/08/31 03:07:47;;;;;;;;;;;20.10;71.40;;;;;;5104952;28;19912;-60
2021/08/31 03:10:13;;;;;;;;;;;20.10;71.40;;;;;;5105554;28;19923;-61
2021/08/31 03:12:38;;;;;;;;;;;20.10;71.40;;;;;;5104888;28;20361;-62
2021/08/31 03:15:04;;;;;;;;;;;20.10;71.40;;;;;;5104426;28;19920;-61
2021/08/31 03:17:30;;;;;;;;;;;20.10;71.40;;;;;;5104502;28;19915;-62
2021/08/31 03:19:55;;;;;;;;;;;20.00;71.30;;;;;;5104801;28;20391;-61
2021/08/31 03:22:20;;;;;;;;;;;20.10;71.30;;;;;;5104708;28;19964;-59
2021/08/31 03:24:46;;;;;;;;;;;20.00;71.30;;;;;;5104668;28;19918;-62
2021/08/31 03:27:11;;;;;;;;;;;20.10;71.30;;;;;;5105278;28;19916;-61
2021/08/31 03:29:37;;;;;;;;;;;20.00;71.40;;;;;;5103949;28;20389;-60
2021/08/31 03:32:02;;;;;;;;;;;20.00;71.30;;;;;;5104584;28;19911;-62
2021/08/31 03:34:28;;;;;;;;;;;20.00;71.30;;;;;;5103852;28;19919;-61
2021/08/31 03:36:53;;;;;;;;;;;20.10;71.40;;;;;;5104001;28;20010;-59
2021/08/31 03:39:19;;;;;;;;;;;20.00;71.30;;;;;;5104184;28;20365;-62
2021/08/31 03:41:44;;;;;;;;;;;20.10;71.40;;;;;;5085765;28;19912;-67
2021/08/31 03:44:10;;;;;;;;;;;20.10;71.30;;;;;;5104950;28;19912;-59
2021/08/31 03:46:35;;;;;;;;;;;20.00;71.30;;;;;;5090578;22;20313;-57
2021/08/31 03:49:00;;;;;;;;;;;20.10;71.30;;;;;;5078707;28;19924;-57
2021/08/31 03:51:26;;;;;;;;;;;20.00;71.30;;;;;;5074694;28;19916;-59
2021/08/31 03:53:51;;;;;;;;;;;20.00;71.30;;;;;;5075348;28;19912;-59
2021/08/31 03:56:17;;;;;;;;;;;20.00;71.30;;;;;;5065953;28;20273;-56
2021/08/31 03:58:42;;;;;;;;;;;20.00;71.20;;;;;;5062122;28;19917;-59
2021/08/31 04:01:08;;;;;;;;;;;20.10;71.30;;;;;;5066732;28;20292;-60
2021/08/31 04:03:33;;;;;;;;;;;20.00;71.20;;;;;;5077209;28;19913;-60
2021/08/31 04:05:59;;;;;;;;;;;20.00;71.20;;;;;;5049696;28;19924;-59
2021/08/31 04:08:24;;;;;;;;;;;20.00;71.20;;;;;;5079901;28;20759;-58
2021/08/31 04:10:50;;;;;;;;;;;20.10;71.20;;;;;;5083085;28;19924;-60
2021/08/31 04:13:18;;;;;;;;;;;20.10;71.30;;;;;;5074940;28;19912;-59
2021/08/31 04:15:43;;;;;;;;;;;20.00;71.20;;;;;;5050519;28;20622;-57
2021/08/31 04:18:09;;;;;;;;;;;20.00;71.20;;;;;;5076527;28;19919;-59
2021/08/31 04:20:34;;;;;;;;;;;20.00;71.20;;;;;;5079945;28;19980;-59
2021/08/31 04:23:00;;;;;;;;;;;20.00;71.20;;;;;;5068426;28;19912;-60
2021/08/31 04:25:25;;;;;;;;;;;20.00;71.30;;;;;;5053554;28;19912;-59
2021/08/31 04:27:51;;;;;;;;;;;20.00;71.30;;;;;;5067722;28;20371;-59
2021/08/31 04:30:16;;;;;;;;;;;20.00;71.40;;;;;;5076147;28;19922;-58
2021/08/31 04:32:42;;;;;;;;;;;20.00;71.30;;;;;;5067668;28;19916;-58
2021/08/31 04:35:07;;;;;;;;;;;20.00;71.30;;;;;;5070123;28;19920;-57
2021/08/31 04:37:33;;;;;;;;;;;20.00;71.30;;;;;;5063441;28;19975;-56
2021/08/31 04:39:58;;;;;;;;;;;20.00;71.40;;;;;;5061633;28;19912;-58
2021/08/31 04:42:24;;;;;;;;;;;20.00;71.50;;;;;;5065194;28;19912;-58
2021/08/31 04:44:49;;;;;;;;;;;20.00;71.50;;;;;;5071875;28;20006;-58
2021/08/31 04:47:16;;;;;;;;;;;20.00;71.50;;;;;;5075419;28;19920;-64
2021/08/31 04:49:41;;;;;;;;;;;20.00;71.50;;;;;;5081989;28;19920;-58
2021/08/31 04:52:07;;;;;;;;;;;20.00;71.50;;;;;;5073036;28;19916;-57
2021/08/31 04:54:32;;;;;;;;;;;20.00;71.30;;;;;;5069266;28;19965;-60
2021/08/31 04:56:58;;;;;;;;;;;20.00;71.40;;;;;;5074131;28;19920;-59
2021/08/31 04:59:24;;;;;;;;;;;20.00;71.50;;;;;;5074391;28;19920;-59
2021/08/31 05:01:49;;;;;;;;;;;20.00;71.50;;;;;;5052702;28;20389;-59
2021/08/31 05:04:15;;;;;;;;;;;20.00;71.50;;;;;;5077371;28;19980;-59
2021/08/31 05:06:40;;;;;;;;;;;20.00;71.40;;;;;;5073904;28;20539;-59
2021/08/31 05:09:06;;;;;;;;;;;20.00;71.30;;;;;;5073336;28;19916;-59
2021/08/31 05:11:31;;;;;;;;;;;20.00;71.50;;;;;;5068707;28;19923;-57
2021/08/31 05:13:57;;;;;;;;;;;20.00;71.50;;;;;;5066564;28;20038;-59
2021/08/31 05:16:22;;;;;;;;;;;20.00;71.40;;;;;;5069280;28;19916;-60
2021/08/31 05:18:48;;;;;;;;;;;20.00;71.30;;;;;;5066610;28;19917;-58
2021/08/31 05:21:13;;;;;;;;;;;20.00;71.30;;;;;;5047922;28;20327;-59
2021/08/31 05:23:39;;;;;;;;;;;20.00;71.30;;;;;;5070077;28;19916;-58
2021/08/31 05:26:04;;;;;;;;;;;20.00;71.50;;;;;;5044714;28;19964;-59
2021/08/31 05:28:30;;;;;;;;;;;20.00;72.10;;;;;;5061583;28;19912;-58
2021/08/31 05:30:55;;;;;;;;;;;20.00;72.30;;;;;;5038840;28;20025;-58
2021/08/31 05:33:21;;;;;;;;;;;20.00;72.50;;;;;;5050344;28;19918;-57
2021/08/31 05:35:47;;;;;;;;;;;20.00;72.60;;;;;;5075562;28;20723;-58
2021/08/31 05:38:12;;;;;;;;;;;20.00;72.60;;;;;;5070309;28;19996;-59
2021/08/31 05:40:38;;;;;;;;;;;20.00;72.60;;;;;;5065678;28;19916;-57
2021/08/31 05:43:03;;;;;;;;;;;20.00;72.60;;;;;;5081796;28;19912;-56
2021/08/31 05:45:28;;;;;;;;;;;20.00;72.60;;;;;;5072168;28;19913;-59
2021/08/31 05:47:54;;;;;;;;;;;20.00;72.50;;;;;;5059057;28;19939;-58
2021/08/31 05:50:20;;;;;;;;;;;20.00;72.40;;;;;;5072602;28;19916;-58
2021/08/31 05:52:45;;;;;;;;;;;20.00;72.40;;;;;;5078214;28;19962;-58
2021/08/31 05:55:11;;;;;;;;;;;20.00;72.40;;;;;;5061594;28;20374;-58
2021/08/31 05:57:36;;;;;;;;;;;20.00;72.40;;;;;;5061421;28;19920;-59
2021/08/31 06:00:02;;;;;;;;;;;20.00;72.40;;;;;;5059599;28;19919;-58
2021/08/31 06:02:28;;;;;;;;;;;20.00;72.40;;;;;;5067361;28;19920;-58
2021/08/31 06:04:53;;;;;;;;;;;20.00;72.50;;;;;;5082019;28;19916;-58
2021/08/31 06:07:19;;;;;;;;;;;20.00;72.40;;;;;;5063955;28;19912;-59
2021/08/31 06:09:45;;;;;;;;;;;20.00;72.40;;;;;;5085712;28;19920;-60
2021/08/31 06:12:11;;;;;;;;;;;20.00;72.20;;;;;;5077800;28;19963;-56
2021/08/31 06:14:37;;;;;;;;;;;20.00;72.20;;;;;;5076253;28;19924;-59
2021/08/31 06:17:02;;;;;;;;;;;20.00;72.00;;;;;;5084924;28;20344;-58
2021/08/31 06:19:28;;;;;;;;;;;20.00;71.90;;;;;;5047111;28;19916;-59
2021/08/31 06:21:53;;;;;;;;;;;20.00;71.90;;;;;;5074299;28;19927;-60
2021/08/31 06:24:18;;;;;;;;;;;20.00;71.70;;;;;;5076275;28;19969;-59
2021/08/31 06:26:44;;;;;;;;;;;20.00;71.60;;;;;;5070163;28;19916;-58
2021/08/31 06:29:09;;;;;;;;;;;20.00;71.50;;;;;;5079747;28;19916;-58
2021/08/31 06:31:35;;;;;;;;;;;20.00;71.40;;;;;;5047913;28;19950;-57
2021/08/31 06:34:00;;;;;;;;;;;20.00;71.30;;;;;;5078374;28;19923;-58
2021/08/31 06:36:26;;;;;;;;;;;20.00;71.30;;;;;;5068805;28;19919;-57
2021/08/31 06:38:51;;;;;;;;;;;20.00;71.20;;;;;;5058463;28;19919;-59
2021/08/31 06:41:16;;;;;;;;;;;20.00;71.10;;;;;;5080863;28;20563;-62
2021/08/31 06:43:44;;;;;;;;;;;20.00;71.00;;;;;;5077349;28;19912;-57
2021/08/31 06:46:10;;;;;;;;;;;20.00;71.00;;;;;;5070443;28;19947;-59
2021/08/31 06:48:36;;;;;;;;;;;20.00;71.60;;;;;;5063964;28;19948;-58
2021/08/31 06:51:01;;;;;;;;;;;20.00;71.00;;;;;;5066579;28;19947;-58
2021/08/31 06:53:26;;;;;;;;;;;20.00;71.00;;;;;;5072564;28;19920;-58
2021/08/31 06:55:52;;;;;;;;;;;20.00;70.90;;;;;;5065021;28;19988;-58
2021/08/31 06:58:17;;;;;;;;;;;20.00;70.90;;;;;;5078136;28;19912;-57
2021/08/31 07:00:43;;;;;;;;;;;19.90;70.90;;;;;;5079492;28;19966;-59
2021/08/31 07:03:08;;;;;;;;;;;20.00;70.90;;;;;;5071753;28;19920;-56
2021/08/31 07:05:34;;;;;;;;;;;20.00;70.90;;;;;;5069096;28;20387;-59
2021/08/31 07:07:59;;;;;;;;;;;20.00;70.90;;;;;;5068976;28;19920;-59
2021/08/31 07:10:25;;;;;;;;;;;20.00;70.90;;;;;;5054848;28;19916;-59
2021/08/31 07:12:50;;;;;;;;;;;20.00;71.00;;;;;;5072852;28;19912;-58
2021/08/31 07:15:16;;;;;;;;;;;20.00;70.90;;;;;;5075698;28;19942;-58
2021/08/31 07:17:41;;;;;;;;;;;20.00;70.90;;;;;;5074353;28;19948;-59
2021/08/31 07:20:07;;;;;;;;;;;19.90;71.00;;;;;;5054320;28;19927;-59
2021/08/31 07:22:33;;;;;;;;;;;20.00;71.00;;;;;;5073473;28;20340;-59
2021/08/31 07:24:58;;;;;;;;;;;19.90;71.00;;;;;;5064414;28;19995;-59
2021/08/31 07:27:24;;;;;;;;;;;19.90;71.30;;;;;;5076453;28;19913;-58
2021/08/31 07:29:49;;;;;;;;;;;19.90;71.70;;;;;;5057400;28;19916;-58
2021/08/31 07:32:16;;;;;;;;;;;20.00;71.90;;;;;;5070804;28;20426;-59
2021/08/31 07:34:41;;;;;;;;;;;20.00;72.10;;;;;;5078185;28;19912;-58
2021/08/31 07:37:07;;;;;;;;;;;19.90;72.10;;;;;;5071986;28;19924;-58
2021/08/31 07:39:32;;;;;;;;;;;19.90;72.20;;;;;;5031361;28;20669;-57
2021/08/31 07:41:58;;;;;;;;;;;19.90;72.30;;;;;;5070882;28;19919;-58
2021/08/31 07:44:23;;;;;;;;;;;19.90;72.30;;;;;;5066642;28;19927;-59
2021/08/31 07:46:50;;;;;;;;;;;19.90;72.30;;;;;;5070616;28;19943;-57
2021/08/31 07:49:16;;;;;;;;;;;19.90;72.30;;;;;;5073721;28;19924;-59
2021/08/31 07:51:42;;;;;;;;;;;19.90;72.30;;;;;;5074317;28;19965;-56
2021/08/31 07:54:07;;;;;;;;;;;19.90;72.40;;;;;;5064994;28;20023;-59
2021/08/31 07:56:33;;;;;;;;;;;19.90;72.40;;;;;;5069901;28;19947;-57
2021/08/31 07:58:58;;;;;;;;;;;19.90;72.40;;;;;;5082761;28;20403;-57
2021/08/31 08:01:24;;;;;;;;;;;19.90;72.40;;;;;;5074103;28;19926;-57
2021/08/31 08:03:49;;;;;;;;;;;19.90;72.40;;;;;;5082948;28;19912;-59
2021/08/31 08:06:15;;;;;;;;;;;19.90;72.40;;;;;;5067567;28;19923;-59
2021/08/31 08:08:40;;;;;;;;;;;19.90;72.40;;;;;;5068320;28;20369;-60
2021/08/31 08:11:06;;;;;;;;;;;19.90;72.40;;;;;;5069854;28;19917;-59
2021/08/31 08:13:31;;;;;;;;;;;19.90;72.40;;;;;;5062635;28;19919;-59
2021/08/31 08:15:57;;;;;;;;;;;19.90;72.30;;;;;;5062998;28;19919;-58
2021/08/31 08:18:22;;;;;;;;;;;19.90;72.40;;;;;;5079597;28;20373;-57
2021/08/31 08:20:48;;;;;;;;;;;19.90;72.40;;;;;;5073594;28;19923;-60
2021/08/31 08:23:13;;;;;;;;;;;19.90;72.30;;;;;;5072302;28;19973;-59
2021/08/31 08:25:39;;;;;;;;;;;20.00;72.30;;;;;;5068348;28;19923;-57
2021/08/31 08:28:04;;;;;;;;;;;19.90;72.30;;;;;;5072704;28;19912;-59
2021/08/31 08:30:30;;;;;;;;;;;19.90;72.40;;;;;;5073392;28;19916;-58
2021/08/31 08:32:55;;;;;;;;;;;19.90;72.40;;;;;;5074021;28;19916;-58
2021/08/31 08:35:21;;;;;;;;;;;19.90;72.40;;;;;;5054207;28;19977;-59
2021/08/31 08:37:47;;;;;;;;;;;19.90;72.40;;;;;;5075378;28;19919;-57
2021/08/31 08:40:12;;;;;;;;;;;19.90;72.30;;;;;;5072920;28;19920;-59
2021/08/31 08:42:38;;;;;;;;;;;19.90;72.30;;;;;;5067944;28;19939;-58
2021/08/31 08:45:05;;;;;;;;;;;19.90;72.30;;;;;;5053072;28;19916;-59
2021/08/31 08:47:31;;;;;;;;;;;19.90;72.30;;;;;;5070895;28;20485;-58
2021/08/31 08:49:56;;;;;;;;;;;19.90;72.30;;;;;;5071408;28;19920;-59
2021/08/31 08:52:22;;;;;;;;;;;19.90;72.30;;;;;;5073147;28;19923;-58
2021/08/31 08:54:47;;;;;;;;;;;19.90;72.30;;;;;;5082883;28;19969;-59
2021/08/31 08:57:15;;;;;;;;;;;19.90;72.30;;;;;;5072884;28;20254;-59
2021/08/31 08:59:41;;;;;;;;;;;19.90;72.30;;;;;;5061928;28;19991;-59
2021/08/31 09:02:07;;;;;;;;;;;19.90;72.30;;;;;;5070320;28;19965;-60
2021/08/31 09:04:45;;;;;;;;;;;19.90;72.30;;;;;;5074931;28;19912;-61
2021/08/31 09:07:20;;;;;;;;;;;19.80;72.20;;;;;;5057603;28;20023;-57
2021/08/31 09:10:05;;;;;;;;;;;19.90;72.30;;;;;;5043684;28;19920;-58
2021/08/31 09:12:31;;;;;;;;;;;19.90;72.30;;;;;;5067727;28;20401;-59
2021/08/31 09:15:00;;;;;;;;;;;19.90;72.30;;;;;;5046881;28;19917;-57
2021/08/31 09:17:25;;;;;;;;;;;19.90;72.30;;;;;;5050170;28;19963;-58
2021/08/31 09:19:51;;;;;;;;;;;19.90;72.30;;;;;;5082579;28;19916;-59
2021/08/31 09:22:16;;;;;;;;;;;19.80;72.20;;;;;;5060063;28;19923;-60
2021/08/31 09:24:55;;;;;;;;;;;19.90;72.30;;;;;;5069983;28;19921;-58
2021/08/31 09:27:37;;;;;;;;;;;19.90;72.30;;;;;;5068000;28;19912;-59
2021/08/31 09:30:26;;;;;;;;;;;19.90;72.30;;;;;;5070677;28;19923;-58
2021/08/31 09:33:07;;;;;;;;;;;19.90;72.20;;;;;;5052908;28;20385;-58
2021/08/31 09:35:36;;;;;;;;;;;19.90;72.30;;;;;;5081088;28;19965;-63
2021/08/31 09:38:02;;;;;;;;;;;19.80;72.30;;;;;;5050079;28;19923;-58
2021/08/31 09:40:30;;;;;;;;;;;19.80;72.20;;;;;;5065805;28;20223;-58
2021/08/31 09:43:04;;;;;;;;;;;19.80;72.20;;;;;;5055040;28;19916;-59
2021/08/31 09:45:34;;;;;;;;;;;19.80;72.20;;;;;;5073880;28;20356;-59
2021/08/31 09:47:59;;;;;;;;;;;19.80;72.20;;;;;;5076058;22;19925;-61
2021/08/31 09:50:29;;;;;;;;;;;19.80;72.30;;;;;;5076865;28;20304;-61
2021/08/31 09:53:04;;;;;;;;;;;19.80;72.20;;;;;;5077955;28;19912;-63
2021/08/31 09:55:29;;;;;;;;;;;19.80;72.20;;;;;;5078546;28;19947;-61
2021/08/31 09:58:07;;;;;;;;;;;19.80;72.20;;;;;;5078525;28;19916;-60
2021/08/31 10:00:33;;;;;;;;;;;19.80;72.20;;;;;;5078783;28;19943;-62
2021/08/31 10:02:59;;;;;;;;;;;19.80;72.30;;;;;;5078308;28;19912;-62
2021/08/31 10:05:24;;;;;;;;;;;19.80;72.20;;;;;;5061676;28;19917;-60
2021/08/31 10:07:50;;;;;;;;;;;19.80;72.30;;;;;;5051045;28;19912;-61
2021/08/31 10:10:15;;;;;;;;;;;19.80;72.30;;;;;;5078479;28;19920;-61
2021/08/31 10:12:41;;;;;;;;;;;19.80;72.30;;;;;;5059515;28;20288;-61
2021/08/31 10:15:06;;;;;;;;;;;19.80;72.30;;;;;;5078458;28;19923;-61
2021/08/31 10:17:32;;;;;;;;;;;19.80;72.30;;;;;;5059273;28;19920;-59
2021/08/31 10:19:58;;;;;;;;;;;19.80;72.30;;;;;;5078750;28;19935;-63
2021/08/31 10:22:23;;;;;;;;;;;19.80;72.30;;;;;;5077382;28;19916;-62
2021/08/31 10:24:49;;;;;;;;;;;19.80;72.20;;;;;;5079045;28;19966;-60
2021/08/31 10:27:27;;;;;;;;;;;19.80;72.20;;;;;;5078151;28;20156;-60
2021/08/31 10:29:52;;;;;;;;;;;19.80;72.20;;;;;;5076409;28;19920;-62
2021/08/31 10:32:30;;;;;;;;;;;19.80;72.30;;;;;;5060617;28;19912;-64
2021/08/31 10:34:55;;;;;;;;;;;19.80;72.30;;;;;;5077371;28;20611;-61
2021/08/31 10:37:22;;;;;;;;;;;19.80;72.20;;;;;;5078136;28;19916;-62
2021/08/31 10:39:54;;;;;;;;;;;19.80;72.30;;;;;;5078718;28;19918;-61
2021/08/31 10:42:29;;;;;;;;;;;19.80;72.30;;;;;;5066314;28;19922;-62
2021/08/31 10:44:55;;;;;;;;;;;19.80;72.20;;;;;;5078052;28;19994;-62
2021/08/31 10:47:31;;;;;;;;;;;19.80;72.20;;;;;;5077749;28;19994;-62
2021/08/31 10:49:56;;;;;;;;;;;19.80;72.20;;;;;;5072947;28;19923;-63
2021/08/31 10:52:56;;;;;;;;;;;19.80;72.20;;;;;;5077161;28;19912;-61
2021/08/31 10:55:24;;;;;;;;;;;19.80;72.20;;;;;;5058567;28;20323;-62
2021/08/31 10:57:53;;;;;;;;;;;19.80;72.20;;;;;;5074782;28;19916;-61
2021/08/31 11:00:19;;;;;;;;;;;19.80;72.20;;;;;;5063550;28;19922;-61
2021/08/31 11:02:50;;;;;;;;;;;19.80;72.20;;;;;;5080087;28;19912;-63
2021/08/31 11:05:22;;;;;;;;;;;19.80;72.20;;;;;;5082029;28;20007;-61
2021/08/31 11:07:48;;;;;;;;;;;19.80;72.10;;;;;;5052522;28;19923;-62
2021/08/31 11:10:19;;;;;;;;;;;19.80;72.10;;;;;;5081606;28;19920;-62
2021/08/31 11:12:45;;;;;;;;;;;19.80;72.10;;;;;;5080925;28;20231;-61
2021/08/31 11:15:17;;;;;;;;;;;19.80;72.10;;;;;;5081304;28;20394;-61
2021/08/31 11:17:43;;;;;;;;;;;19.80;72.20;;;;;;5080584;28;19912;-60
2021/08/31 11:20:27;;;;;;;;;;;19.80;72.20;;;;;;5081437;28;20422;-62
2021/08/31 11:23:14;;;;;;;;;;;19.80;72.20;;;;;;5058909;28;19912;-62
2021/08/31 11:26:02;;;;;;;;;;;19.80;72.20;;;;;;5081607;28;20007;-60
2021/08/31 11:28:28;;;;;;;;;;;19.80;72.10;;;;;;5080598;28;19951;-61
2021/08/31 11:30:54;;;;;;;;;;;19.80;72.10;;;;;;5080664;28;19988;-61
2021/08/31 11:33:27;;;;;;;;;;;19.80;72.20;;;;;;5081310;28;19916;-62
2021/08/31 11:35:53;;;;;;;;;;;19.70;72.10;;;;;;5081270;28;19917;-61
2021/08/31 11:38:29;;;;;;;;;;;19.80;72.20;;;;;;5080719;28;20502;-61
2021/08/31 11:40:54;;;;;;;;;;;19.80;72.20;;;;;;5081222;28;19924;-61
2021/08/31 11:43:28;;;;;;;;;;;19.80;72.10;;;;;;5080946;28;19921;-60
2021/08/31 11:45:54;;;;;;;;;;;19.80;72.20;;;;;;5081324;28;19922;-61
2021/08/31 11:48:23;;;;;;;;;;;19.80;72.10;;;;;;5061989;28;19928;-62
2021/08/31 11:50:48;;;;;;;;;;;19.70;72.20;;;;;;5081608;28;19931;-62
2021/08/31 11:53:14;;;;;;;;;;;19.80;72.20;;;;;;5062201;28;19916;-62
2021/08/31 11:55:40;;;;;;;;;;;19.80;72.10;;;;;;5076197;28;19912;-63
2021/08/31 11:58:05;;;;;;;;;;;19.80;72.20;;;;;;5069318;28;20435;-64
2021/08/31 12:00:49;;;;;;;;;;;19.80;72.20;;;;;;5081508;28;19918;-62
2021/08/31 12:03:29;;;;;;;;;;;19.70;72.10;;;;;;5073323;28;19962;-63
2021/08/31 12:06:04;;;;;;;;;;;19.80;72.10;;;;;;5077727;28;19999;-63
2021/08/31 12:08:30;;;;;;;;;;;19.80;72.20;;;;;;5034828;28;19984;-63
2021/08/31 12:10:56;;;;;;;;;;;19.80;72.10;;;;;;5053895;28;19962;-63
2021/08/31 12:13:21;;;;;;;;;;;19.80;72.10;;;;;;5064204;28;20672;-63
2021/08/31 12:15:48;;;;;;;;;;;19.80;72.10;;;;;;5081966;28;19912;-64
2021/08/31 12:18:13;;;;;;;;;;;19.70;72.10;;;;;;5064547;28;19977;-62
2021/08/31 12:20:39;;;;;;;;;;;19.70;72.10;;;;;;5063168;28;19913;-64
2021/08/31 12:23:04;;;;;;;;;;;19.80;72.20;;;;;;5065059;28;19912;-63
2021/08/31 12:25:40;;;;;;;;;;;19.70;72.10;;;;;;5080644;28;19916;-62
2021/08/31 12:28:05;;;;;;;;;;;19.70;72.20;;;;;;5066564;28;19920;-64
2021/08/31 12:30:34;;;;;;;;;;;19.80;72.30;;;;;;5052029;28;20719;-63
2021/08/31 12:33:00;;;;;;;;;;;19.70;72.20;;;;;;5067715;28;19916;-63
2021/08/31 12:35:31;;;;;;;;;;;19.70;72.20;;;;;;5078618;28;20622;-63
2021/08/31 12:38:10;;;;;;;;;;;19.70;72.20;;;;;;5081715;28;19908;-63
2021/08/31 12:40:37;;;;;;;;;;;19.70;72.20;;;;;;5068355;28;20341;-64
2021/08/31 12:43:03;;;;;;;;;;;19.70;72.20;;;;;;5082020;28;19908;-63
2021/08/31 12:45:29;;;;;;;;;;;19.70;72.10;;;;;;5064895;28;19997;-64
2021/08/31 12:47:54;;;;;;;;;;;19.70;72.20;;;;;;5082142;28;20118;-64
2021/08/31 12:50:20;;;;;;;;;;;19.70;72.10;;;;;;5064439;28;19916;-64
2021/08/31 12:52:55;;;;;;;;;;;19.70;72.10;;;;;;5081779;28;19916;-63
2021/08/31 12:55:21;;;;;;;;;;;19.70;72.20;;;;;;5054376;28;19919;-64
2021/08/31 12:57:46;;;;;;;;;;;19.70;72.20;;;;;;5080936;28;19912;-62
2021/08/31 13:00:22;;;;;;;;;;;19.70;72.20;;;;;;5047422;28;19912;-63
2021/08/31 13:02:49;;;;;;;;;;;19.70;72.20;;;;;;5080915;28;19919;-63
2021/08/31 13:05:14;;;;;;;;;;;19.70;72.30;;;;;;5064142;28;20364;-62
2021/08/31 13:07:40;;;;;;;;;;;19.70;72.20;;;;;;5079536;28;19919;-62
2021/08/31 13:10:05;;;;;;;;;;;19.70;72.20;;;;;;5048568;28;19916;-62
2021/08/31 13:12:32;;;;;;;;;;;19.70;72.10;;;;;;5079680;28;19912;-63
2021/08/31 13:14:57;;;;;;;;;;;19.70;72.20;;;;;;5066363;28;19916;-63
2021/08/31 13:17:25;;;;;;;;;;;19.70;72.20;;;;;;5077455;28;19923;-63
2021/08/31 13:19:50;;;;;;;;;;;19.70;72.20;;;;;;5066348;28;19925;-63
2021/08/31 13:22:15;;;;;;;;;;;19.70;72.20;;;;;;5057338;28;19968;-63
2021/08/31 13:24:41;;;;;;;;;;;19.70;72.20;;;;;;5081392;28;19939;-62
2021/08/31 13:27:08;;;;;;;;;;;19.70;72.20;;;;;;5060890;28;19917;-63
2021/08/31 13:29:33;;;;;;;;;;;19.70;72.30;;;;;;5081031;28;19934;-64
2021/08/31 13:31:59;;;;;;;;;;;19.70;72.30;;;;;;5061766;28;19920;-63
2021/08/31 13:34:24;;;;;;;;;;;19.70;72.20;;;;;;5081326;28;19912;-63
2021/08/31 13:36:50;;;;;;;;;;;19.70;72.20;;;;;;5034129;28;19912;-63
2021/08/31 13:39:15;;;;;;;;;;;19.70;72.20;;;;;;5080755;28;19920;-64
2021/08/31 13:41:42;;;;;;;;;;;19.70;72.20;;;;;;5063391;28;19983;-63
2021/08/31 13:44:07;;;;;;;;;;;19.70;72.30;;;;;;5080136;28;19977;-64
2021/08/31 13:46:33;;;;;;;;;;;19.70;72.30;;;;;;5035603;28;19942;-62
2021/08/31 13:48:59;;;;;;;;;;;19.70;72.30;;;;;;5077778;28;19912;-62
2021/08/31 13:51:24;;;;;;;;;;;19.70;72.30;;;;;;5046692;28;19916;-64
2021/08/31 13:53:50;;;;;;;;;;;19.70;72.30;;;;;;5077194;28;20372;-63
2021/08/31 13:56:15;;;;;;;;;;;19.70;72.30;;;;;;5064781;28;19920;-62
2021/08/31 13:58:40;;;;;;;;;;;19.70;72.20;;;;;;5067197;28;19973;-62
2021/08/31 14:01:06;;;;;;;;;;;19.70;72.20;;;;;;5066656;28;19908;-61
2021/08/31 14:03:31;;;;;;;;;;;19.70;72.30;;;;;;5078058;28;20369;-63
2021/08/31 14:05:57;;;;;;;;;;;19.70;72.30;;;;;;5082160;28;19908;-61
2021/08/31 14:08:22;;;;;;;;;;;19.80;72.30;;;;;;5059741;28;19920;-63
2021/08/31 14:10:48;;;;;;;;;;;19.70;72.30;;;;;;5081858;28;20556;-63
2021/08/31 14:13:13;;;;;;;;;;;19.70;72.30;;;;;;5062661;28;19917;-62